Time;durP1;ratioP1;P1;durP2;ratioP2;P2;SDS_P1;SDS_P2;PMS_P1;PMS_P2;Temp;Humidity;BMP_temperature;BMP_pressure;BME280_temperature;BME280_humidity;BME280_pressure;Samples;Min_cycle;Max_cycle;Signal;HPM_P1;HPM_P2
2021/03/13 00:01:54;;;;;;;1.20;0.70;;;;;;;6.99;75.52;95654.19;5042283;28;20229;-71
2021/03/13 00:04:20;;;;;;;3.70;1.17;;;;;;;6.99;77.25;95654.19;5042449;28;20225;-71
2021/03/13 00:06:46;;;;;;;4.20;0.70;;;;;;;6.99;79.22;95641.09;5043489;28;20205;-71
2021/03/13 00:09:12;;;;;;;2.30;0.80;;;;;;;6.88;82.69;95659.78;5042935;28;20213;-71
2021/03/13 00:11:39;;;;;;;0.63;0.53;;;;;;;6.75;84.56;95660.28;5042106;28;20208;-71
2021/03/13 00:14:05;;;;;;;1.97;0.70;;;;;;;6.69;85.59;95662.75;5042909;28;20217;-70
2021/03/13 00:16:31;;;;;;;0.50;0.47;;;;;;;6.65;86.53;95661.47;5041875;28;20209;-71
2021/03/13 00:18:57;;;;;;;1.47;0.60;;;;;;;6.62;87.34;95660.97;5042579;28;20201;-71
2021/03/13 00:21:23;;;;;;;2.70;0.67;;;;;;;6.60;87.50;95668.19;5041436;28;20688;-71
2021/03/13 00:23:49;;;;;;;3.10;0.77;;;;;;;6.55;88.41;95652.97;5042351;28;20278;-70
2021/03/13 00:26:15;;;;;;;4.47;0.87;;;;;;;6.47;90.17;95663.47;5040279;28;20205;-71
2021/03/13 00:28:41;;;;;;;4.13;0.70;;;;;;;6.38;91.70;95667.06;5041175;28;20889;-71
2021/03/13 00:31:07;;;;;;;2.23;0.70;;;;;;;6.33;91.95;95664.13;5040742;28;20216;-71
2021/03/13 00:33:36;;;;;;;1.57;0.70;;;;;;;6.33;92.35;95673.78;5040697;28;20224;-70
2021/03/13 00:36:04;;;;;;;2.90;0.63;;;;;;;6.29;92.49;95668.06;5040880;28;20205;-71
2021/03/13 00:38:30;;;;;;;6.93;0.93;;;;;;;6.30;93.04;95677.56;5041164;28;20213;-71
2021/03/13 00:40:57;;;;;;;3.37;0.90;;;;;;;6.24;93.52;95678.22;5040592;28;20212;-71
2021/03/13 00:43:23;;;;;;;1.37;0.80;;;;;;;6.21;93.34;95677.72;5039946;28;20225;-71
2021/03/13 00:45:50;;;;;;;1.90;0.90;;;;;;;6.16;93.89;95678.22;5040146;28;20216;-71
2021/03/13 00:48:17;;;;;;;4.20;0.83;;;;;;;6.12;95.04;95658.59;5040329;28;20211;-71
2021/03/13 00:50:44;;;;;;;4.20;0.90;;;;;;;6.12;95.14;95658.59;5039857;28;20293;-71
2021/03/13 00:53:11;;;;;;;3.03;0.80;;;;;;;6.06;95.41;95659.25;5040184;28;20296;-71
2021/03/13 00:55:37;;;;;;;1.50;0.77;;;;;;;6.02;95.46;95648.47;5039422;28;20205;-71
2021/03/13 00:58:04;;;;;;;2.80;0.90;;;;;;;6.04;94.59;95648.13;5040242;28;20266;-71
2021/03/13 01:00:30;;;;;;;2.23;0.80;;;;;;;6.06;94.25;95646.16;5040817;28;20201;-71
2021/03/13 01:02:57;;;;;;;3.80;0.97;;;;;;;6.11;92.80;95641.28;5038547;28;20708;-71
2021/03/13 01:05:23;;;;;;;2.03;0.80;;;;;;;6.19;91.73;95640.44;5039563;28;20205;-71
2021/03/13 01:07:49;;;;;;;1.43;0.50;;;;;;;6.22;91.13;95637.50;5040822;28;20209;-71
2021/03/13 01:10:17;;;;;;;2.90;0.90;;;;;;;6.26;90.54;95646.66;5040340;28;20267;-71
2021/03/13 01:12:44;;;;;;;4.97;0.90;;;;;;;6.26;90.06;95637.00;5039755;28;20193;-71
2021/03/13 01:15:13;;;;;;;2.93;0.70;;;;;;;6.30;89.20;95633.09;5039394;28;20232;-71
2021/03/13 01:17:39;;;;;;;4.50;0.80;;;;;;;6.37;87.56;95631.41;5040672;28;20555;-71
2021/03/13 01:20:10;;;;;;;1.77;0.70;;;;;;;6.44;86.70;95618.50;5040056;28;20258;-71
2021/03/13 01:22:36;;;;;;;9.23;0.90;;;;;;;6.48;85.78;95617.16;5040461;28;20228;-71
2021/03/13 01:25:03;;;;;;;3.70;0.93;;;;;;;6.45;85.46;95615.69;5039356;28;20248;-70
2021/03/13 01:27:30;;;;;;;1.07;0.53;;;;;;;6.51;84.72;95609.81;5039784;28;20209;-71
2021/03/13 01:29:56;;;;;;;1.77;0.60;;;;;;;6.53;84.24;95610.47;5039782;28;20231;-71
2021/03/13 01:32:22;;;;;;;2.27;0.80;;;;;;;6.49;84.06;95605.72;5040189;28;20197;-71
2021/03/13 01:34:48;;;;;;;2.57;0.90;;;;;;;6.49;83.92;95605.72;5039834;28;20362;-71
2021/03/13 01:37:15;;;;;;;2.10;0.90;;;;;;;6.49;84.11;95598.72;5038936;28;20209;-71
2021/03/13 01:39:42;;;;;;;1.23;0.70;;;;;;;6.52;84.06;95600.97;5039953;28;20619;-71
2021/03/13 01:42:08;;;;;;;4.13;1.00;;;;;;;6.48;83.18;95586.59;5039516;28;20294;-71
2021/03/13 01:44:35;;;;;;;2.03;0.73;;;;;;;6.50;82.85;95584.63;5039144;28;20252;-70
2021/03/13 01:47:02;;;;;;;2.20;0.60;;;;;;;6.53;82.45;95586.09;5039673;28;20209;-71
2021/03/13 01:49:29;;;;;;;4.27;0.80;;;;;;;6.51;83.10;95583.63;5039670;28;20205;-71
2021/03/13 01:51:56;;;;;;;2.77;0.77;;;;;;;6.57;82.87;95577.75;5039405;28;20222;-71
2021/03/13 01:54:24;;;;;;;5.80;0.73;;;;;;;6.58;83.71;95575.94;5038612;28;20228;-71
2021/03/13 01:56:51;;;;;;;3.60;0.63;;;;;;;6.58;83.68;95581.16;5038269;28;20217;-71
2021/03/13 01:59:18;;;;;;;4.80;0.90;;;;;;;6.63;83.08;95571.00;5039099;28;20220;-71
2021/03/13 02:01:44;;;;;;;2.70;0.70;;;;;;;6.62;83.51;95567.59;5038199;28;20201;-71
2021/03/13 02:04:11;;;;;;;2.33;0.70;;;;;;;6.66;82.78;95571.50;5039527;28;20232;-72
2021/03/13 02:06:37;;;;;;;2.70;0.80;;;;;;;6.65;82.70;95572.47;5038403;28;20715;-71
2021/03/13 02:09:14;;;;;;;2.67;0.70;;;;;;;6.65;82.72;95560.19;5040064;28;21280;-71
2021/03/13 02:11:49;;;;;;;1.17;0.60;;;;;;;6.64;82.70;95562.97;5039310;28;20237;-71
2021/03/13 02:14:26;;;;;;;3.70;0.80;;;;;;;6.65;82.64;95574.28;5038643;28;20228;-71
2021/03/13 02:16:59;;;;;;;4.30;1.07;;;;;;;6.65;82.64;95570.66;5039408;28;20209;-71
2021/03/13 02:19:53;;;;;;;3.23;0.90;;;;;;;6.61;82.98;95571.19;5040735;28;20228;-71
2021/03/13 02:22:20;;;;;;;3.73;0.80;;;;;;;6.57;82.86;95569.06;5039479;28;20221;-71
2021/03/13 02:24:59;;;;;;;3.50;0.80;;;;;;;6.55;83.59;95568.41;5039461;28;20257;-71
2021/03/13 02:27:28;;;;;;;3.90;0.90;;;;;;;6.61;83.12;95568.56;5039966;28;20202;-71
2021/03/13 02:29:58;;;;;;;2.00;0.70;;;;;;;6.56;83.74;95560.41;5039393;28;20201;-71
2021/03/13 02:32:31;;;;;;;2.50;0.70;;;;;;;6.47;84.55;95560.59;5040207;28;20193;-72
2021/03/13 02:35:02;;;;;;;3.03;0.70;;;;;;;6.55;84.59;95557.94;5040526;28;20225;-71
2021/03/13 02:37:32;;;;;;;2.33;0.77;;;;;;;6.53;84.88;95545.03;5040158;28;20208;-70
2021/03/13 02:40:02;;;;;;;2.77;1.17;;;;;;;6.43;85.76;95541.78;5039723;28;20243;-71
2021/03/13 02:42:31;;;;;;;3.00;0.83;;;;;;;6.42;85.88;95550.63;5039682;28;20247;-71
2021/03/13 02:45:00;;;;;;;2.40;0.80;;;;;;;6.35;86.22;95541.84;5039184;28;20229;-71
2021/03/13 02:47:27;;;;;;;1.27;0.50;;;;;;;6.35;86.26;95536.59;5039184;28;20194;-71
2021/03/13 02:49:55;;;;;;;3.80;0.90;;;;;;;6.32;86.76;95534.28;5039702;28;20202;-71
2021/03/13 02:52:22;;;;;;;2.90;0.90;;;;;;;6.35;86.56;95535.75;5039792;28;20208;-71
2021/03/13 02:54:51;;;;;;;1.47;0.90;;;;;;;6.34;87.28;95523.66;5039228;28;20229;-71
2021/03/13 02:57:19;;;;;;;3.60;1.17;;;;;;;6.35;87.33;95541.00;5038426;28;20209;-72
2021/03/13 02:59:46;;;;;;;1.63;0.70;;;;;;;6.30;88.25;95519.75;5039870;28;20656;-70
2021/03/13 03:02:15;;;;;;;2.77;0.93;;;;;;;6.29;88.51;95521.56;5039549;28;20221;-71
2021/03/13 03:04:42;;;;;;;2.63;0.77;;;;;;;6.32;88.99;95516.00;5039231;28;20229;-71
2021/03/13 03:07:10;;;;;;;2.20;0.73;;;;;;;6.39;89.00;95516.13;5038973;28;20208;-71
2021/03/13 03:09:37;;;;;;;2.03;0.60;;;;;;;6.33;89.88;95517.63;5039515;28;20216;-71
2021/03/13 03:12:06;;;;;;;4.70;0.93;;;;;;;6.39;90.23;95522.19;5040255;28;20201;-71
2021/03/13 03:14:32;;;;;;;2.97;0.70;;;;;;;6.38;90.25;95515.31;5039554;28;20603;-70
2021/03/13 03:17:01;;;;;;;2.00;0.90;;;;;;;6.37;90.48;95503.22;5039580;28;20228;-71
2021/03/13 03:19:30;;;;;;;2.70;0.80;;;;;;;6.38;90.64;95514.50;5039752;28;20205;-71
2021/03/13 03:21:57;;;;;;;2.23;0.90;;;;;;;6.35;91.17;95507.81;5038793;28;20979;-71
2021/03/13 03:24:24;;;;;;;0.90;0.50;;;;;;;6.34;91.16;95493.09;5040042;28;20229;-70
2021/03/13 03:26:50;;;;;;;3.17;0.90;;;;;;;6.30;91.77;95476.13;5041683;28;20216;-71
2021/03/13 03:29:18;;;;;;;3.80;0.83;;;;;;;6.27;92.13;95479.06;5044119;28;20217;-71
2021/03/13 03:31:44;;;;;;;2.40;0.80;;;;;;;6.24;92.16;95476.78;5044622;28;20212;-70
2021/03/13 03:34:10;;;;;;;3.70;0.87;;;;;;;6.24;92.54;95487.25;5044778;28;20264;-71
2021/03/13 03:36:37;;;;;;;3.07;1.00;;;;;;;6.17;93.59;95475.84;5043416;28;20915;-71
2021/03/13 03:39:04;;;;;;;1.27;0.70;;;;;;;6.13;94.03;95473.72;5044186;28;20773;-70
2021/03/13 03:41:33;;;;;;;2.77;0.73;;;;;;;6.07;94.40;95477.81;5044812;28;20216;-71
2021/03/13 03:44:03;;;;;;;1.53;0.90;;;;;;;6.08;94.66;95476.84;5042424;28;20587;-71
2021/03/13 03:46:33;;;;;;;1.50;0.80;;;;;;;6.05;94.81;95486.81;5043133;28;20205;-71
2021/03/13 03:49:03;;;;;;;2.67;0.90;;;;;;;5.98;95.46;95479.81;5043735;28;20205;-71
2021/03/13 03:51:30;;;;;;;3.73;1.20;;;;;;;5.99;95.85;95486.69;5044095;28;20250;-71
2021/03/13 03:53:58;;;;;;;2.73;1.00;;;;;;;5.97;96.14;95478.16;5043450;28;20270;-71
2021/03/13 03:56:25;;;;;;;2.10;1.00;;;;;;;5.91;96.60;95478.84;5043592;28;20601;-71
2021/03/13 03:58:53;;;;;;;3.67;1.20;;;;;;;5.97;95.79;95479.00;5044365;28;20201;-70
2021/03/13 04:01:22;;;;;;;1.73;1.00;;;;;;;5.98;96.47;95478.00;5043153;28;20194;-71
2021/03/13 04:03:51;;;;;;;2.07;1.10;;;;;;;5.96;96.38;95473.91;5042728;28;20229;-71
2021/03/13 04:06:18;;;;;;;6.27;1.27;;;;;;;5.97;96.58;95468.53;5042040;28;20232;-71
2021/03/13 04:08:46;;;;;;;2.50;1.20;;;;;;;5.95;96.88;95469.69;5042857;28;20197;-71
2021/03/13 04:11:15;;;;;;;3.13;1.20;;;;;;;5.93;96.78;95471.66;5043650;28;20209;-71
2021/03/13 04:13:42;;;;;;;2.73;1.03;;;;;;;5.97;96.31;95467.72;5042650;28;21207;-71
2021/03/13 04:16:08;;;;;;;3.23;1.10;;;;;;;5.96;96.30;95460.84;5043168;28;20216;-71
2021/03/13 04:18:35;;;;;;;2.10;0.73;;;;;;;5.93;96.20;95461.19;5044178;28;20224;-71
2021/03/13 04:21:01;;;;;;;3.33;0.90;;;;;;;5.96;95.63;95458.22;5043755;28;20212;-71
2021/03/13 04:23:28;;;;;;;3.57;1.10;;;;;;;5.98;95.44;95456.28;5043076;28;20221;-70
2021/03/13 04:25:54;;;;;;;3.80;1.03;;;;;;;5.93;95.61;95456.78;5044144;28;20569;-71
2021/03/13 04:28:22;;;;;;;2.30;1.10;;;;;;;5.96;95.55;95450.38;5043439;28;20216;-71
2021/03/13 04:30:50;;;;;;;5.70;1.30;;;;;;;5.99;95.26;95434.38;5042819;28;20212;-71
2021/03/13 04:33:18;;;;;;;3.47;1.00;;;;;;;5.95;95.53;95440.94;5043547;28;20221;-71
2021/03/13 04:35:46;;;;;;;2.83;1.00;;;;;;;5.96;95.01;95446.00;5043334;28;20205;-71
2021/03/13 04:38:13;;;;;;;3.87;1.00;;;;;;;5.95;94.67;95443.56;5043884;28;20271;-71
2021/03/13 04:40:40;;;;;;;2.83;1.17;;;;;;;5.98;94.50;95443.19;5043566;28;20220;-71
2021/03/13 04:43:07;;;;;;;3.67;1.13;;;;;;;5.99;94.15;95440.41;5042418;28;20229;-71
2021/03/13 04:45:35;;;;;;;4.30;0.90;;;;;;;6.06;93.29;95431.72;5043212;28;20216;-70
2021/03/13 04:48:01;;;;;;;3.40;0.90;;;;;;;6.06;93.44;95428.31;5044251;28;20270;-71
2021/03/13 04:50:28;;;;;;;2.03;1.03;;;;;;;6.14;92.47;95439.53;5043166;28;20201;-71
2021/03/13 04:52:54;;;;;;;4.43;1.07;;;;;;;6.13;92.16;95431.88;5043668;28;20197;-71
2021/03/13 04:55:20;;;;;;;3.33;0.93;;;;;;;6.10;92.87;95440.88;5043194;28;20239;-71
2021/03/13 04:57:46;;;;;;;6.17;0.90;;;;;;;6.10;92.16;95432.22;5045336;28;20225;-71
2021/03/13 05:00:15;;;;;;;2.93;1.00;;;;;;;6.13;92.01;95426.63;5044043;28;20209;-71
2021/03/13 05:02:42;;;;;;;2.03;1.03;;;;;;;6.08;92.28;95429.78;5042880;28;20221;-72
2021/03/13 05:05:09;;;;;;;2.37;1.03;;;;;;;6.12;92.42;95425.84;5043090;28;20291;-71
2021/03/13 05:07:35;;;;;;;2.23;0.97;;;;;;;6.09;92.48;95415.69;5042741;28;20197;-71
2021/03/13 05:10:02;;;;;;;3.97;1.23;;;;;;;6.13;91.78;95424.03;5043151;28;20224;-72
2021/03/13 05:12:28;;;;;;;3.97;1.00;;;;;;;6.17;91.61;95417.47;5042428;28;20205;-71
2021/03/13 05:14:54;;;;;;;1.90;0.80;;;;;;;6.17;91.20;95433.16;5042172;28;20237;-71
2021/03/13 05:17:20;;;;;;;0.70;0.60;;;;;;;6.17;91.41;95415.69;5042283;28;20209;-71
2021/03/13 05:19:47;;;;;;;3.83;0.90;;;;;;;6.06;91.75;95413.44;5042971;28;20201;-71
2021/03/13 05:22:13;;;;;;;3.23;0.80;;;;;;;6.16;91.23;95415.81;5043050;28;20231;-71
2021/03/13 05:24:39;;;;;;;5.03;1.27;;;;;;;6.21;90.77;95416.97;5042007;28;20225;-72
2021/03/13 05:27:06;;;;;;;1.57;0.87;;;;;;;6.21;90.88;95422.19;5040790;28;20690;-72
2021/03/13 05:29:32;;;;;;;1.07;0.80;;;;;;;6.21;90.83;95435.28;5040635;28;20208;-71
2021/03/13 05:31:58;;;;;;;2.23;0.90;;;;;;;6.23;90.93;95443.75;5042037;28;20201;-72
2021/03/13 05:34:24;;;;;;;0.70;0.70;;;;;;;6.25;90.32;95433.94;5042315;28;20692;-72
2021/03/13 05:36:50;;;;;;;2.90;0.60;;;;;;;6.25;90.48;95444.41;5041772;28;20208;-71
2021/03/13 05:39:16;;;;;;;2.00;0.80;;;;;;;6.21;91.13;95444.91;5042822;28;20201;-71
2021/03/13 05:41:44;;;;;;;2.20;0.80;;;;;;;6.18;91.06;95432.97;5041761;28;20304;-71
2021/03/13 05:44:12;;;;;;;1.10;0.73;;;;;;;6.14;91.46;95434.31;5041839;28;20233;-71
2021/03/13 05:46:42;;;;;;;5.10;1.00;;;;;;;6.09;91.96;95420.91;5040867;28;20259;-71
2021/03/13 05:49:09;;;;;;;1.23;0.80;;;;;;;6.09;92.01;95426.16;5040830;28;20209;-72
2021/03/13 05:51:37;;;;;;;2.10;0.83;;;;;;;6.15;91.75;95412.41;5041018;28;20205;-72
2021/03/13 05:54:06;;;;;;;4.13;0.60;;;;;;;6.20;90.97;95423.19;5040854;28;20229;-72
2021/03/13 05:56:33;;;;;;;2.03;0.80;;;;;;;6.22;90.81;95400.28;5040564;28;20255;-72
2021/03/13 05:58:59;;;;;;;3.47;1.40;;;;;;;6.23;90.80;95401.91;5040528;28;20845;-72
2021/03/13 06:01:26;;;;;;;1.60;0.87;;;;;;;6.26;90.23;95400.75;5042249;28;20208;-72
2021/03/13 06:03:52;;;;;;;2.03;0.90;;;;;;;6.27;90.56;95392.72;5042793;28;20228;-71
2021/03/13 06:06:20;;;;;;;2.57;1.00;;;;;;;6.25;90.38;95381.63;5043646;28;20205;-72
2021/03/13 06:08:47;;;;;;;3.87;1.40;;;;;;;6.33;89.77;95393.84;5042725;28;20258;-73
2021/03/13 06:11:14;;;;;;;3.60;1.07;;;;;;;6.35;88.89;95384.84;5042185;28;20205;-71
2021/03/13 06:13:40;;;;;;;3.13;1.00;;;;;;;6.40;88.78;95376.47;5041009;28;20251;-71
2021/03/13 06:16:08;;;;;;;2.67;1.10;;;;;;;6.37;88.46;95390.72;5042205;28;20295;-72
2021/03/13 06:18:59;;;;;;;1.50;0.90;;;;;;;6.43;88.14;95383.97;5042716;28;20205;-72
2021/03/13 06:21:27;;;;;;;1.83;0.60;;;;;;;6.43;87.62;95382.19;5038947;28;20200;-72
2021/03/13 06:23:58;;;;;;;3.03;1.20;;;;;;;6.55;86.40;95372.94;5042623;28;20616;-71
2021/03/13 06:26:25;;;;;;;4.03;1.60;;;;;;;6.52;86.89;95375.91;5041984;28;20213;-72
2021/03/13 06:28:52;;;;;;;1.87;0.87;;;;;;;6.64;84.77;95368.47;5042255;28;20208;-71
2021/03/13 06:31:24;;;;;;;0.70;0.40;;;;;;;6.69;84.58;95369.56;5043360;28;20208;-72
2021/03/13 06:33:50;;;;;;;1.80;0.60;;;;;;;6.69;84.38;95374.81;5043193;28;20225;-72
2021/03/13 06:36:20;;;;;;;3.33;1.13;;;;;;;6.66;84.16;95370.72;5040852;28;20201;-72
2021/03/13 06:38:47;;;;;;;1.50;0.80;;;;;;;6.72;83.44;95377.06;5042475;28;20294;-72
2021/03/13 06:41:16;;;;;;;3.03;0.70;;;;;;;6.78;82.47;95371.97;5042106;28;20263;-70
2021/03/13 06:43:43;;;;;;;1.27;0.60;;;;;;;6.85;82.41;95375.50;5041896;28;20225;-71
2021/03/13 06:46:11;;;;;;;2.50;0.80;;;;;;;6.90;82.40;95377.63;5041567;28;20241;-72
2021/03/13 06:48:40;;;;;;;4.37;0.90;;;;;;;6.91;81.92;95360.91;5040979;28;20197;-71
2021/03/13 06:51:23;;;;;;;3.40;0.80;;;;;;;7.03;80.51;95383.06;5041964;28;20212;-71
2021/03/13 06:54:14;;;;;;;2.23;0.50;;;;;;;7.18;79.35;95368.19;5042812;28;20232;-70
2021/03/13 06:56:42;;;;;;;2.53;0.90;;;;;;;7.27;78.19;95342.56;5026364;28;20206;-70
2021/03/13 06:59:24;;;;;;;1.60;0.77;;;;;;;7.32;78.69;95355.94;5043210;28;20235;-71
2021/03/13 07:02:01;;;;;;;3.10;0.53;;;;;;;7.45;76.95;95344.84;5042254;28;20223;-70
2021/03/13 07:04:36;;;;;;;3.87;1.00;;;;;;;7.48;76.27;95350.53;5043888;28;20585;-71
2021/03/13 07:07:03;;;;;;;2.30;1.00;;;;;;;7.52;75.87;95333.47;5042545;28;20216;-71
2021/03/13 07:09:49;;;;;;;2.37;0.77;;;;;;;7.63;74.13;95338.25;5042806;28;20220;-71
2021/03/13 07:12:39;;;;;;;4.43;1.40;;;;;;;7.65;73.96;95336.28;5041100;28;20315;-71
2021/03/13 07:15:14;;;;;;;3.67;1.60;;;;;;;7.66;73.65;95352.81;5036868;28;20237;-70
2021/03/13 07:17:42;;;;;;;1.93;0.73;;;;;;;7.70;73.10;95322.59;5042769;28;20575;-71
2021/03/13 07:20:09;;;;;;;2.03;0.90;;;;;;;7.69;73.33;95311.31;5043817;28;20204;-70
2021/03/13 07:22:35;;;;;;;1.43;0.70;;;;;;;7.69;73.59;95329.66;5045040;28;20243;-71
2021/03/13 07:25:01;;;;;;;1.53;0.60;;;;;;;7.73;72.49;95336.19;5043513;28;20229;-70
2021/03/13 07:27:30;;;;;;;3.00;0.90;;;;;;;7.78;72.65;95319.88;5042450;28;20664;-70
2021/03/13 07:29:57;;;;;;;3.43;0.70;;;;;;;7.79;73.23;95324.97;5042683;28;20244;-70
2021/03/13 07:32:25;;;;;;;1.30;0.60;;;;;;;7.84;73.58;95332.28;5044347;28;20212;-71
2021/03/13 07:34:56;;;;;;;2.43;0.70;;;;;;;7.83;73.10;95313.13;5041949;28;20255;-71
2021/03/13 07:37:23;;;;;;;6.67;1.13;;;;;;;7.84;73.36;95327.88;5042035;28;20212;-71
2021/03/13 07:39:51;;;;;;;1.77;0.83;;;;;;;7.82;73.03;95324.59;5042910;28;20213;-70
2021/03/13 07:42:19;;;;;;;2.70;0.70;;;;;;;7.81;73.29;95315.09;5042979;28;20201;-71
2021/03/13 07:44:46;;;;;;;2.97;1.10;;;;;;;7.85;73.88;95318.19;5041760;28;20240;-71
2021/03/13 07:47:14;;;;;;;2.90;0.97;;;;;;;7.83;73.10;95304.41;5042351;28;20209;-71
2021/03/13 07:49:42;;;;;;;2.00;0.60;;;;;;;7.86;73.59;95315.38;5043145;28;20201;-71
2021/03/13 07:52:09;;;;;;;3.43;0.80;;;;;;;7.90;73.30;95308.75;5043531;28;20201;-70
2021/03/13 07:54:38;;;;;;;4.07;0.97;;;;;;;7.85;73.94;95305.88;5042011;28;20221;-70
2021/03/13 07:57:07;;;;;;;2.10;0.70;;;;;;;7.89;73.57;95322.84;5042801;28;20209;-71
2021/03/13 07:59:47;;;;;;;3.03;0.90;;;;;;;7.93;73.03;95329.41;5042060;28;21099;-71
2021/03/13 08:02:38;;;;;;;5.70;0.90;;;;;;;7.96;71.08;95293.09;5041076;28;20216;-71
2021/03/13 08:05:07;;;;;;;0.67;0.43;;;;;;;7.99;71.18;95308.50;5041032;28;20229;-70
2021/03/13 08:07:57;;;;;;;0.73;0.53;;;;;;;8.02;71.08;95307.31;5040285;28;20274;-71
2021/03/13 08:10:56;;;;;;;5.17;1.40;;;;;;;8.03;70.45;95283.50;5042049;28;20221;-72
2021/03/13 08:14:02;;;;;;;2.70;0.70;;;;;;;8.02;70.47;95281.88;5045845;28;20225;-70
2021/03/13 08:16:45;;;;;;;1.77;0.70;;;;;;;8.09;71.20;95287.19;5039883;28;20873;-71
2021/03/13 08:19:32;;;;;;;1.37;0.60;;;;;;;8.21;69.66;95281.31;5046062;28;20668;-71
2021/03/13 08:22:18;;;;;;;5.73;0.77;;;;;;;8.42;68.56;95293.66;5046898;28;20224;-71
2021/03/13 08:24:50;;;;;;;1.73;0.90;;;;;;;8.59;67.43;95266.94;5046443;28;20221;-70
2021/03/13 08:27:32;;;;;;;0.83;0.50;;;;;;;8.73;65.68;95261.66;5046478;28;20197;-71
2021/03/13 08:29:57;;;;;;;1.50;0.43;;;;;;;8.87;66.15;95244.16;5043522;28;20664;-71
2021/03/13 08:33:03;;;;;;;1.83;0.50;;;;;;;8.91;66.00;95259.38;5046050;28;20209;-71
2021/03/13 08:35:44;;;;;;;1.30;0.50;;;;;;;8.87;64.51;95279.13;5045249;28;20660;-71
2021/03/13 08:38:11;;;;;;;3.07;0.60;;;;;;;8.92;64.15;95278.56;5044927;28;20211;-70
2021/03/13 08:40:53;;;;;;;2.17;0.67;;;;;;;8.95;63.54;95278.16;5044894;28;20255;-70
2021/03/13 08:43:37;;;;;;;2.93;0.53;;;;;;;8.90;63.97;95265.63;5044002;28;20236;-71
2021/03/13 08:46:04;;;;;;;2.60;0.40;;;;;;;9.07;63.89;95269.56;5043830;28;20298;-70
2021/03/13 08:48:55;;;;;;;2.67;0.60;;;;;;;9.11;63.32;95276.06;5044152;28;20232;-71
2021/03/13 08:51:21;;;;;;;1.20;0.60;;;;;;;9.19;62.93;95262.81;5044600;28;20209;-71
2021/03/13 08:53:48;;;;;;;1.57;0.60;;;;;;;9.27;63.73;95257.41;5045638;28;20800;-71
2021/03/13 08:56:37;;;;;;;2.33;0.60;;;;;;;9.22;62.91;95267.69;5044037;28;21149;-71
2021/03/13 08:59:08;;;;;;;2.17;0.73;;;;;;;9.15;63.72;95261.53;5043470;28;20205;-71
2021/03/13 09:01:34;;;;;;;1.93;0.70;;;;;;;9.12;64.61;95275.88;5044461;28;20203;-71
2021/03/13 09:04:01;;;;;;;1.47;0.90;;;;;;;9.08;63.66;95271.22;5044500;28;20703;-70
2021/03/13 09:06:27;;;;;;;0.80;0.60;;;;;;;9.16;64.26;95269.25;5044820;28;20203;-71
2021/03/13 09:09:08;;;;;;;1.27;0.50;;;;;;;9.18;62.26;95237.53;5043922;28;20620;-71
2021/03/13 09:11:35;;;;;;;0.77;0.43;;;;;;;9.22;63.25;95229.06;5044745;28;20205;-71
2021/03/13 09:14:02;;;;;;;0.80;0.50;;;;;;;9.36;62.83;95220.25;5045532;28;20261;-71
2021/03/13 09:16:34;;;;;;;1.30;0.77;;;;;;;9.43;62.59;95220.28;5045221;28;20205;-70
2021/03/13 09:19:00;;;;;;;4.03;1.27;;;;;;;9.50;63.19;95218.50;5044164;28;20205;-71
2021/03/13 09:21:40;;;;;;;1.93;0.67;;;;;;;9.63;63.02;95181.75;5044297;28;20215;-71
2021/03/13 09:24:09;;;;;;;2.17;0.93;;;;;;;9.66;62.24;95205.00;5042799;28;20279;-71
2021/03/13 09:26:36;;;;;;;2.03;0.70;;;;;;;9.59;62.15;95178.69;5044234;28;20201;-71
2021/03/13 09:29:02;;;;;;;1.00;0.50;;;;;;;9.49;62.54;95169.53;5044004;28;20228;-71
2021/03/13 09:31:28;;;;;;;2.83;0.70;;;;;;;9.54;62.45;95177.66;5042949;28;20208;-71
2021/03/13 09:34:12;;;;;;;1.17;0.60;;;;;;;9.56;62.21;95213.28;5042235;28;20213;-71
2021/03/13 09:36:38;;;;;;;0.40;0.40;;;;;;;9.58;61.52;95169.16;5042667;28;20776;-70
2021/03/13 09:39:05;;;;;;;1.57;0.50;;;;;;;9.62;62.13;95154.63;5044745;28;20205;-71
2021/03/13 09:41:32;;;;;;;2.87;0.60;;;;;;;9.76;62.22;95164.16;5043816;28;20212;-72
2021/03/13 09:43:58;;;;;;;3.63;0.60;;;;;;;9.76;61.03;95151.03;5044719;28;20233;-71
2021/03/13 09:46:24;;;;;;;2.97;0.50;;;;;;;9.79;60.42;95146.19;5042957;28;20213;-71
2021/03/13 09:48:51;;;;;;;1.27;0.67;;;;;;;9.84;60.84;95142.97;5041561;28;20220;-70
2021/03/13 09:51:17;;;;;;;1.67;0.47;;;;;;;9.89;59.55;95135.25;5042891;28;20205;-71
2021/03/13 09:53:43;;;;;;;2.03;0.50;;;;;;;9.88;58.52;95133.66;5043059;28;21086;-71
2021/03/13 09:56:09;;;;;;;0.70;0.43;;;;;;;9.90;58.80;95127.19;5044682;28;20216;-71
2021/03/13 09:58:36;;;;;;;4.93;1.00;;;;;;;9.89;58.94;95141.34;5042706;28;20197;-71
2021/03/13 10:01:02;;;;;;;0.83;0.70;;;;;;;9.95;59.97;95140.56;5043754;28;20205;-71
2021/03/13 10:03:29;;;;;;;7.07;0.50;;;;;;;9.92;57.62;95133.06;5044260;28;20688;-71
2021/03/13 10:05:56;;;;;;;0.90;0.57;;;;;;;10.03;58.17;95132.50;5042846;28;20696;-71
2021/03/13 10:08:32;;;;;;;0.80;0.50;;;;;;;10.04;58.27;95126.25;5043347;28;20205;-71
2021/03/13 10:11:01;;;;;;;1.23;0.77;;;;;;;10.03;58.78;95116.72;5043955;28;20208;-71
2021/03/13 10:13:29;;;;;;;2.10;0.80;;;;;;;10.12;58.46;95123.41;5043118;28;20707;-71
2021/03/13 10:15:56;;;;;;;2.10;0.70;;;;;;;10.10;57.51;95114.88;5043021;28;20208;-71
2021/03/13 10:18:27;;;;;;;4.73;1.10;;;;;;;10.12;58.29;95115.50;5045231;28;20209;-70
2021/03/13 10:20:54;;;;;;;3.90;1.00;;;;;;;10.20;59.20;95117.94;5043151;28;20234;-70
2021/03/13 10:23:23;;;;;;;1.50;0.80;;;;;;;10.12;58.44;95117.31;5043021;28;20302;-71
2021/03/13 10:25:54;;;;;;;4.07;0.80;;;;;;;10.15;58.54;95125.63;5043107;28;20208;-71
2021/03/13 10:28:20;;;;;;;2.23;0.80;;;;;;;10.20;59.21;95117.94;5043845;28;20215;-71
2021/03/13 10:30:47;;;;;;;4.97;0.70;;;;;;;10.23;57.97;95122.00;5044759;28;20212;-70
2021/03/13 10:33:14;;;;;;;1.97;0.90;;;;;;;10.26;59.33;95101.34;5043991;28;20208;-70
2021/03/13 10:35:41;;;;;;;2.93;0.60;;;;;;;10.21;59.46;95109.03;5043818;28;20292;-71
2021/03/13 10:38:17;;;;;;;2.27;0.83;;;;;;;10.30;58.69;95105.19;5043436;28;20267;-70
2021/03/13 10:40:45;;;;;;;0.63;0.50;;;;;;;10.26;58.03;95137.38;5044005;28;20288;-73
2021/03/13 10:43:22;;;;;;;6.13;1.00;;;;;;;10.20;57.80;95096.88;5041956;28;20547;-71
2021/03/13 10:46:10;;;;;;;1.77;0.77;;;;;;;10.27;58.12;95112.69;5041651;28;21204;-70
2021/03/13 10:48:53;;;;;;;2.60;1.00;;;;;;;10.35;58.62;95110.66;5041320;28;20718;-70
2021/03/13 10:51:20;;;;;;;1.73;0.77;;;;;;;10.41;58.24;95117.75;5042825;28;20266;-71
2021/03/13 10:53:46;;;;;;;2.57;1.07;;;;;;;10.47;57.73;95099.31;5042394;28;20220;-71
2021/03/13 10:56:14;;;;;;;1.23;0.60;;;;;;;10.51;57.63;95092.63;5041548;28;20205;-71
2021/03/13 10:58:47;;;;;;;2.47;0.90;;;;;;;10.62;57.86;95091.22;5041972;28;20208;-71
2021/03/13 11:01:13;;;;;;;2.77;0.93;;;;;;;10.85;57.42;95075.75;5042417;28;20695;-71
2021/03/13 11:03:42;;;;;;;1.90;0.80;;;;;;;10.90;56.93;95081.22;5043558;28;20231;-71
2021/03/13 11:06:08;;;;;;;2.67;0.73;;;;;;;10.92;56.40;95087.91;5043741;28;20232;-71
2021/03/13 11:08:34;;;;;;;3.30;0.90;;;;;;;10.95;56.64;95072.47;5042850;28;20548;-71
2021/03/13 11:11:00;;;;;;;1.97;0.60;;;;;;;10.93;57.13;95072.91;5042485;28;20205;-71
2021/03/13 11:13:26;;;;;;;2.63;0.80;;;;;;;10.92;56.81;95076.53;5042272;28;20318;-71
2021/03/13 11:15:53;;;;;;;3.03;0.70;;;;;;;10.98;56.33;95072.09;5041167;28;20699;-71
2021/03/13 11:18:19;;;;;;;5.80;0.90;;;;;;;10.95;56.36;95067.19;5041146;28;20205;-72
2021/03/13 11:20:47;;;;;;;2.53;0.73;;;;;;;11.11;55.91;95069.41;5040198;28;20208;-71
2021/03/13 11:23:14;;;;;;;2.70;0.70;;;;;;;11.16;55.28;95048.50;5040998;28;20228;-70
2021/03/13 11:25:40;;;;;;;1.27;0.60;;;;;;;11.19;55.65;95053.34;5039410;28;20205;-71
2021/03/13 11:28:06;;;;;;;3.10;0.70;;;;;;;11.06;55.70;95052.56;5040846;28;20275;-71
2021/03/13 11:30:32;;;;;;;0.50;0.50;;;;;;;11.02;55.53;95051.38;5040614;28;20208;-72
2021/03/13 11:32:58;;;;;;;0.90;0.50;;;;;;;10.95;55.31;95054.03;5041480;28;20220;-71
2021/03/13 11:35:24;;;;;;;0.70;0.40;;;;;;;10.99;55.90;95043.88;5043381;28;20205;-71
2021/03/13 11:37:52;;;;;;;0.80;0.57;;;;;;;10.93;55.02;95027.09;5042758;28;20205;-71
2021/03/13 11:40:20;;;;;;;2.90;1.00;;;;;;;10.94;55.10;95015.50;5043764;28;20212;-71
2021/03/13 11:42:46;;;;;;;5.47;0.63;;;;;;;10.95;54.97;95017.13;5043590;28;20238;-71
2021/03/13 11:45:14;;;;;;;1.57;0.60;;;;;;;10.96;54.67;95010.84;5041012;28;20225;-71
2021/03/13 11:47:40;;;;;;;0.63;0.30;;;;;;;10.93;55.69;95016.53;5043624;28;20251;-71
2021/03/13 11:50:10;;;;;;;1.40;0.60;;;;;;;10.93;55.16;95017.56;5045141;28;20205;-71
2021/03/13 11:52:37;;;;;;;2.50;0.70;;;;;;;10.92;54.50;95015.94;5045213;28;20665;-71